createdAt,value
2018-09-16T00:02:04.175Z,149315.03
2018-09-16T00:04:35.103Z,149336.23
2018-09-16T00:07:05.376Z,149346.27
2018-09-16T00:09:36.332Z,149350.00
2018-09-16T00:12:06.780Z,149352.50
2018-09-16T00:14:36.881Z,149337.48
2018-09-16T00:17:07.110Z,149350.00
2018-09-16T00:19:37.619Z,149346.27
2018-09-16T00:22:08.709Z,149361.23
2018-09-16T00:24:40.089Z,149348.75
2018-09-16T00:27:10.246Z,149363.72
2018-09-16T00:29:43.541Z,149338.73
2018-09-16T00:32:18.444Z,149333.75
2018-09-16T00:34:48.928Z,149328.75
2018-09-16T00:37:19.754Z,149338.73
2018-09-16T00:39:50.008Z,149327.52
2018-09-16T00:42:20.001Z,149323.77
2018-09-16T00:44:50.369Z,149301.28
2018-09-16T00:47:22.269Z,149293.80
2018-09-16T00:49:52.445Z,149265.06
2018-09-16T00:52:22.528Z,149265.06
2018-09-16T00:54:52.572Z,149248.84
2018-09-16T00:57:23.081Z,149198.94
2018-09-16T00:59:53.938Z,149217.63
2018-09-16T01:02:24.774Z,149227.61
2018-09-16T01:04:55.061Z,149240.08
2018-09-16T01:07:25.276Z,149252.59
2018-09-16T01:09:55.323Z,149271.30
2018-09-16T01:12:25.669Z,149278.78
2018-09-16T01:14:55.897Z,149288.75
2018-09-16T01:17:26.312Z,149283.77
2018-09-16T01:19:56.635Z,149286.25
2018-09-16T01:22:28.326Z,149290.00
2018-09-16T01:24:58.628Z,149257.59
2018-09-16T01:27:28.823Z,149226.36
2018-09-16T01:29:59.402Z,149222.63
2018-09-16T01:32:30.456Z,149216.39
2018-09-16T01:35:00.486Z,149216.39
2018-09-16T01:37:35.765Z,149206.41
2018-09-16T01:40:06.141Z,149196.39
2018-09-16T01:42:36.396Z,149178.94
2018-09-16T01:45:06.638Z,149180.19
2018-09-16T01:47:36.601Z,149141.50
2018-09-16T01:50:07.895Z,149131.53
2018-09-16T01:52:38.756Z,149101.52
2018-09-16T01:55:09.078Z,149076.59
2018-09-16T01:57:39.225Z,149096.53
2018-09-16T02:00:09.297Z,149095.28
2018-09-16T02:02:39.489Z,149099.03
2018-09-16T02:05:09.661Z,149095.28
2018-09-16T02:07:39.686Z,149082.81
2018-09-16T02:10:09.863Z,149105.31
2018-09-16T02:12:39.959Z,149110.30
2018-09-16T02:15:10.157Z,149106.56
2018-09-16T02:17:40.795Z,149090.30
2018-09-16T02:20:11.053Z,149055.36
2018-09-16T02:22:41.498Z,149054.11
2018-09-16T02:25:12.671Z,149050.38
2018-09-16T02:27:42.711Z,149021.72
2018-09-16T02:30:12.917Z,149015.48
2018-09-16T02:32:43.351Z,149011.75
2018-09-16T02:35:13.352Z,149017.97
2018-09-16T02:37:44.107Z,149055.36
2018-09-16T02:40:15.472Z,149049.12
2018-09-16T02:42:45.820Z,149037.91
2018-09-16T02:45:16.028Z,149026.69
2018-09-16T02:47:47.135Z,149019.22
2018-09-16T02:50:17.273Z,148993.00
2018-09-16T02:52:48.513Z,148985.53
2018-09-16T02:55:18.732Z,148989.27
2018-09-16T02:57:49.007Z,148981.80
2018-09-16T03:00:19.257Z,148970.58
2018-09-16T03:02:49.551Z,148943.13
2018-09-16T03:05:24.747Z,148944.38
2018-09-16T03:07:55.037Z,148944.38
2018-09-16T03:10:25.522Z,148920.66
2018-09-16T03:12:56.782Z,148916.92
2018-09-16T03:15:26.862Z,148923.19
2018-09-16T03:17:57.012Z,148918.16
2018-09-16T03:20:27.131Z,148911.89
2018-09-16T03:22:59.700Z,148904.42
2018-09-16T03:25:30.937Z,148879.50
2018-09-16T03:28:01.029Z,148859.53
2018-09-16T03:30:31.110Z,148842.09
2018-09-16T03:33:02.980Z,148839.59
2018-09-16T03:35:33.293Z,148835.86
2018-09-16T03:38:03.634Z,148815.89
2018-09-16T03:40:34.591Z,148824.66
2018-09-16T03:43:05.631Z,148781.03
2018-09-16T03:45:35.621Z,148749.84
2018-09-16T03:48:06.110Z,148762.30
2018-09-16T03:50:37.528Z,148748.59
2018-09-16T03:53:08.239Z,148717.42
2018-09-16T03:55:43.027Z,148722.41
2018-09-16T03:58:13.389Z,148692.48
2018-09-16T04:00:43.612Z,148689.98
2018-09-16T04:03:16.253Z,148675.00
2018-09-16T04:05:47.290Z,148665.05
2018-09-16T04:08:17.528Z,148665.05
2018-09-16T04:10:48.033Z,148625.17
2018-09-16T04:13:20.063Z,148637.66
2018-09-16T04:15:50.052Z,148627.66
2018-09-16T04:18:21.070Z,148613.97
2018-09-16T04:20:51.521Z,148590.31
2018-09-16T04:23:22.616Z,148596.53
2018-09-16T04:25:53.492Z,148592.81
2018-09-16T04:28:24.090Z,148585.34
2018-09-16T04:30:54.300Z,148587.83
2018-09-16T04:33:25.565Z,148582.81
2018-09-16T04:35:55.808Z,148576.58
2018-09-16T04:38:26.064Z,148589.08
2018-09-16T04:40:56.252Z,148584.09
2018-09-16T04:43:26.266Z,148596.53
2018-09-16T04:45:58.141Z,148592.81
2018-09-16T04:48:29.196Z,148596.53
2018-09-16T04:51:00.136Z,148630.14
2018-09-16T04:53:31.728Z,148643.89
2018-09-16T04:56:04.320Z,148666.28
2018-09-16T04:58:34.312Z,148682.53
2018-09-16T05:01:05.667Z,148699.95
2018-09-16T05:03:37.800Z,148719.92
2018-09-16T05:06:07.882Z,148729.92
2018-09-16T05:08:41.112Z,148724.91
2018-09-16T05:11:13.093Z,148746.11
2018-09-16T05:13:44.316Z,148809.66
2018-09-16T05:16:15.827Z,148802.19
2018-09-16T05:18:45.654Z,148818.38
2018-09-16T05:21:19.179Z,148812.16
2018-09-16T05:23:50.728Z,148852.06
2018-09-16T05:26:21.361Z,148868.28
2018-09-16T05:28:52.433Z,148903.17
2018-09-16T05:31:23.653Z,148965.59
2018-09-16T05:33:56.933Z,148936.89
2018-09-16T05:36:27.893Z,148889.47
2018-09-16T05:38:59.907Z,148930.67
2018-09-16T05:41:30.103Z,148908.16
2018-09-16T05:44:00.959Z,148916.92
2018-09-16T05:46:31.981Z,148971.83
2018-09-16T05:49:02.638Z,148988.03
2018-09-16T05:51:33.336Z,148940.64
2018-09-16T05:54:03.829Z,148896.94
2018-09-16T05:56:36.687Z,148918.16
2018-09-16T05:59:07.449Z,148919.41
2018-09-16T06:01:37.773Z,148895.69
2018-09-16T06:04:07.689Z,148904.42
2018-09-16T06:06:41.221Z,148909.41
2018-09-16T06:09:14.522Z,148935.66
2018-09-16T06:11:44.889Z,149000.48
2018-09-16T06:14:18.103Z,149183.94
2018-09-16T06:16:49.715Z,149332.50
2018-09-16T06:19:21.731Z,149404.94
2018-09-16T06:21:52.112Z,149581.09
2018-09-16T06:24:22.212Z,149531.13
2018-09-16T06:26:53.841Z,149373.70
2018-09-16T06:29:24.213Z,149253.84
2018-09-16T06:31:54.326Z,149196.39
2018-09-16T06:34:24.503Z,149388.72
2018-09-16T06:36:55.117Z,149492.41
2018-09-16T06:39:26.382Z,149756.03
2018-09-16T06:41:56.547Z,150058.75
2018-09-16T06:44:26.707Z,150026.22
2018-09-16T06:46:56.876Z,149924.87
2018-09-16T06:49:26.921Z,149701.06
2018-09-16T06:51:58.917Z,149654.78
2018-09-16T06:54:29.553Z,149674.84
2018-09-16T06:57:01.053Z,149522.34
2018-09-16T06:59:31.368Z,149601.06
2018-09-16T07:02:01.820Z,149694.81
2018-09-16T07:04:33.380Z,149719.84
2018-09-16T07:07:03.492Z,149778.56
2018-09-16T07:09:34.300Z,149779.81
2018-09-16T07:12:04.823Z,149879.86
2018-09-16T07:14:35.093Z,149884.86
2018-09-16T07:17:05.043Z,149951.11
2018-09-16T07:19:35.468Z,150078.73
2018-09-16T07:22:06.575Z,150084.98
2018-09-16T07:24:39.040Z,150106.28
2018-09-16T07:27:09.381Z,150110.03
2018-09-16T07:29:39.753Z,149978.64
2018-09-16T07:32:13.434Z,149976.14
2018-09-16T07:34:45.359Z,150012.47
2018-09-16T07:37:18.910Z,149944.86
2018-09-16T07:39:48.996Z,149828.56
2018-09-16T07:42:20.465Z,149861.08
2018-09-16T07:44:51.460Z,149876.12
2018-09-16T07:47:21.721Z,149906.09
2018-09-16T07:49:52.060Z,149798.55
2018-09-16T07:52:23.529Z,149842.30
2018-09-16T07:54:53.866Z,149846.09
2018-09-16T07:57:24.598Z,149746.06
2018-09-16T07:59:54.729Z,149842.30
2018-09-16T08:02:25.953Z,149862.38
2018-09-16T08:04:56.471Z,149952.36
2018-09-16T08:07:28.500Z,149953.61
2018-09-16T08:09:59.700Z,150028.72
2018-09-16T08:12:29.869Z,149993.63
2018-09-16T08:15:02.360Z,149936.13
2018-09-16T08:17:32.914Z,149891.09
2018-09-16T08:20:03.604Z,149949.86
2018-09-16T08:22:33.909Z,150028.72
2018-09-16T08:25:04.147Z,150008.67
2018-09-16T08:27:34.134Z,149921.12
2018-09-16T08:30:04.402Z,150052.50
2018-09-16T08:32:35.431Z,150145.02
2018-09-16T08:35:08.635Z,150118.78
2018-09-16T08:37:38.983Z,150160.06
2018-09-16T08:40:09.165Z,150210.16
2018-09-16T08:42:40.198Z,150182.61
2018-09-16T08:45:10.338Z,150295.27
2018-09-16T08:47:40.610Z,150397.95
2018-09-16T08:50:10.736Z,150444.28
2018-09-16T08:52:43.181Z,150491.91
2018-09-16T08:55:14.317Z,150567.02
2018-09-16T08:57:44.553Z,150604.61
2018-09-16T09:00:14.732Z,150592.09
2018-09-16T09:02:45.108Z,150597.09
2018-09-16T09:05:17.622Z,150579.58
2018-09-16T09:07:47.715Z,150528.23
2018-09-16T09:10:17.988Z,150445.53
2018-09-16T09:12:48.835Z,150459.28
2018-09-16T09:15:19.370Z,150438.03
2018-09-16T09:17:49.767Z,150394.20
2018-09-16T09:20:20.270Z,150401.70
2018-09-16T09:22:51.261Z,150456.78
2018-09-16T09:25:21.541Z,150495.66
2018-09-16T09:27:51.681Z,150419.22
2018-09-16T09:30:21.779Z,150441.78
2018-09-16T09:32:52.179Z,150299.03
2018-09-16T09:35:23.239Z,150198.91
2018-09-16T09:37:53.238Z,150376.66
2018-09-16T09:40:23.332Z,150503.17
2018-09-16T09:42:54.691Z,150559.52
2018-09-16T09:45:25.898Z,150489.36
2018-09-16T09:47:57.123Z,150511.92
2018-09-16T09:50:27.409Z,150572.03
2018-09-16T09:52:58.544Z,150433.03
2018-09-16T09:55:29.740Z,150405.47
2018-09-16T09:57:59.929Z,150460.53
2018-09-16T10:00:40.613Z,150510.67
2018-09-16T10:03:10.654Z,150495.66
2018-09-16T10:05:40.837Z,150401.70
2018-09-16T10:08:13.378Z,150369.14
2018-09-16T10:10:44.628Z,150231.42
2018-09-16T10:13:15.107Z,150058.75
2018-09-16T10:15:46.190Z,150016.22
2018-09-16T10:18:17.003Z,149923.62
2018-09-16T10:20:47.566Z,149843.59
2018-09-16T10:23:17.909Z,149789.81
2018-09-16T10:25:48.109Z,149728.58
2018-09-16T10:28:19.841Z,149704.81
2018-09-16T10:30:50.547Z,149698.56
2018-09-16T10:33:21.088Z,149739.81
2018-09-16T10:35:52.911Z,149818.58
2018-09-16T10:38:23.285Z,149879.86
2018-09-16T10:40:54.962Z,149926.13
2018-09-16T10:43:26.145Z,149964.91
2018-09-16T10:45:57.207Z,149906.09
2018-09-16T10:48:28.264Z,149874.87
2018-09-16T10:51:00.057Z,149898.59
2018-09-16T10:53:30.123Z,149886.11
2018-09-16T10:56:00.296Z,149823.56
2018-09-16T10:58:31.316Z,149802.28
2018-09-16T11:01:04.200Z,149824.81
2018-09-16T11:03:34.734Z,149758.53
2018-09-16T11:06:09.307Z,149772.33
2018-09-16T11:08:39.533Z,149781.06
2018-09-16T11:11:12.147Z,149798.55
2018-09-16T11:13:43.003Z,149871.13
2018-09-16T11:16:15.040Z,149812.28
2018-09-16T11:18:45.820Z,149702.31
2018-09-16T11:21:16.192Z,149688.58
2018-09-16T11:23:46.831Z,149739.81
2018-09-16T11:26:18.182Z,149711.05
2018-09-16T11:28:48.997Z,149633.56
2018-09-16T11:31:19.628Z,149586.09
2018-09-16T11:33:49.869Z,149597.31
2018-09-16T11:36:21.045Z,149596.06
2018-09-16T11:38:51.158Z,149568.56
2018-09-16T11:41:21.467Z,149587.34
2018-09-16T11:43:52.951Z,149689.83
2018-09-16T11:46:24.107Z,149708.55
2018-09-16T11:48:54.524Z,149682.34
2018-09-16T11:51:26.137Z,149673.59
2018-09-16T11:53:58.408Z,149688.58
2018-09-16T11:56:29.058Z,149721.08
2018-09-16T11:58:59.312Z,149734.81
2018-09-16T12:01:30.413Z,149746.06
2018-09-16T12:04:01.661Z,149752.30
2018-09-16T12:06:32.366Z,149701.06
2018-09-16T12:09:03.712Z,149701.06
2018-09-16T12:11:34.042Z,149778.56
2018-09-16T12:14:05.562Z,149813.53
2018-09-16T12:16:37.486Z,149876.12
2018-09-16T12:19:08.853Z,149928.63
2018-09-16T12:21:38.952Z,150003.63
2018-09-16T12:24:09.193Z,150012.47
2018-09-16T12:26:40.027Z,149992.38
2018-09-16T12:29:12.664Z,149976.14
2018-09-16T12:31:43.347Z,149994.88
2018-09-16T12:34:14.072Z,149976.14
2018-09-16T12:36:45.687Z,150008.67
2018-09-16T12:39:15.964Z,150056.25
2018-09-16T12:41:47.212Z,150078.73
2018-09-16T12:44:17.468Z,150057.50
2018-09-16T12:46:48.910Z,150031.20
2018-09-16T12:49:18.866Z,149973.64
2018-09-16T12:51:49.426Z,149864.87
2018-09-16T12:54:19.983Z,149874.87
2018-09-16T12:56:49.905Z,149929.88
2018-09-16T12:59:20.000Z,149948.61
2018-09-16T13:01:50.627Z,150032.45
2018-09-16T13:04:21.028Z,150058.75
2018-09-16T13:06:52.916Z,150003.63
2018-09-16T13:09:25.985Z,150061.25
2018-09-16T13:11:57.316Z,149976.14
2018-09-16T13:14:28.289Z,150097.48
2018-09-16T13:16:59.306Z,150110.03
2018-09-16T13:19:30.087Z,150152.56
2018-09-16T13:22:00.492Z,150197.66
2018-09-16T13:24:30.617Z,150138.78
2018-09-16T13:27:01.579Z,150081.25
2018-09-16T13:29:31.841Z,150081.25
2018-09-16T13:32:02.036Z,150028.72
2018-09-16T13:34:33.390Z,150016.22
2018-09-16T13:37:04.654Z,149969.89
2018-09-16T13:39:34.435Z,149977.39
2018-09-16T13:42:06.230Z,149953.61
2018-09-16T13:44:36.243Z,150009.92
2018-09-16T13:47:06.520Z,150001.12
2018-09-16T13:49:37.057Z,149973.64
2018-09-16T13:52:07.205Z,150011.22
2018-09-16T13:54:39.122Z,150011.22
2018-09-16T13:57:09.357Z,150036.22
2018-09-16T13:59:41.079Z,149967.39
2018-09-16T14:02:11.363Z,149919.88
2018-09-16T14:04:41.815Z,149919.88
2018-09-16T14:07:12.132Z,149923.62
2018-09-16T14:09:42.261Z,149899.84
2018-09-16T14:12:12.581Z,149866.13
2018-09-16T14:14:42.789Z,149861.08
2018-09-16T14:17:14.211Z,149862.38
2018-09-16T14:19:44.273Z,149793.55
2018-09-16T14:22:16.008Z,149798.55
2018-09-16T14:24:46.011Z,149793.55
2018-09-16T14:27:16.184Z,149773.58
2018-09-16T14:29:47.381Z,149746.06
2018-09-16T14:32:17.531Z,149676.09
2018-09-16T14:34:49.460Z,149676.09
2018-09-16T14:37:20.798Z,149617.28
2018-09-16T14:39:50.967Z,149583.59
2018-09-16T14:42:21.590Z,149486.12
2018-09-16T14:44:51.875Z,149466.11
2018-09-16T14:47:22.125Z,149464.86
2018-09-16T14:49:52.382Z,149447.39
2018-09-16T14:52:22.460Z,149447.39
2018-09-16T14:54:52.911Z,149399.94
2018-09-16T14:57:23.146Z,149403.69
2018-09-16T14:59:53.139Z,149378.69
2018-09-16T15:02:23.486Z,149381.19
2018-09-16T15:04:53.616Z,149323.77
2018-09-16T15:07:23.816Z,149320.03
2018-09-16T15:09:54.104Z,149282.52
2018-09-16T15:12:24.568Z,149275.05
2018-09-16T15:14:54.655Z,149250.09
2018-09-16T15:17:26.531Z,149251.34
2018-09-16T15:19:56.852Z,149243.81
2018-09-16T15:22:28.504Z,149188.91
2018-09-16T15:24:59.232Z,149218.88
2018-09-16T15:27:31.144Z,149228.86
2018-09-16T15:30:03.397Z,149232.59
2018-09-16T15:32:33.608Z,149165.23
2018-09-16T15:35:05.572Z,149150.22
2018-09-16T15:37:35.847Z,149137.75
2018-09-16T15:40:06.176Z,149099.03
2018-09-16T15:42:37.444Z,149087.81
2018-09-16T15:45:08.038Z,149069.12
2018-09-16T15:47:38.119Z,149071.61
2018-09-16T15:50:15.475Z,149079.09
2018-09-16T15:52:45.585Z,149061.64
2018-09-16T15:55:16.355Z,149035.42
2018-09-16T15:57:46.555Z,149039.16
2018-09-16T16:00:17.901Z,149011.75
2018-09-16T16:02:49.695Z,149005.47
2018-09-16T16:05:19.827Z,149014.23
2018-09-16T16:07:50.914Z,149021.72
2018-09-16T16:10:21.165Z,148990.52
2018-09-16T16:12:52.211Z,148964.36
2018-09-16T16:15:23.187Z,148966.84
2018-09-16T16:17:55.676Z,148981.80
2018-09-16T16:20:26.483Z,148948.11
2018-09-16T16:22:57.578Z,148949.36
2018-09-16T16:25:27.867Z,148971.83
2018-09-16T16:27:58.451Z,148936.89
2018-09-16T16:30:28.714Z,148911.89
2018-09-16T16:32:58.929Z,148899.44
2018-09-16T16:35:29.497Z,148880.75
2018-09-16T16:38:00.544Z,148894.44
2018-09-16T16:40:33.986Z,148868.28
2018-09-16T16:43:04.323Z,148865.75
2018-09-16T16:45:35.210Z,148845.83
2018-09-16T16:48:07.238Z,148850.81
2018-09-16T16:50:37.384Z,148867.05
2018-09-16T16:53:08.561Z,148865.75
2018-09-16T16:55:40.748Z,148832.12
2018-09-16T16:58:11.073Z,148839.59
2018-09-16T17:00:41.714Z,148843.34
2018-09-16T17:03:12.165Z,148849.56
2018-09-16T17:05:42.613Z,148844.58
2018-09-16T17:08:12.718Z,148840.84
2018-09-16T17:10:43.704Z,148838.36
2018-09-16T17:13:13.955Z,148847.06
2018-09-16T17:15:46.185Z,148832.12
2018-09-16T17:18:16.440Z,148822.16
2018-09-16T17:20:46.725Z,148844.58
2018-09-16T17:23:17.382Z,148838.36
2018-09-16T17:25:47.700Z,148837.11
2018-09-16T17:28:17.762Z,148843.34
2018-09-16T17:30:48.929Z,148834.63
2018-09-16T17:33:19.043Z,148817.13
2018-09-16T17:35:49.383Z,148799.70
2018-09-16T17:38:23.444Z,148786.00
2018-09-16T17:40:54.037Z,148771.02
2018-09-16T17:43:25.380Z,148773.55
2018-09-16T17:45:57.440Z,148763.55
2018-09-16T17:48:28.592Z,148769.77
2018-09-16T17:50:58.854Z,148753.58
2018-09-16T17:53:30.054Z,148739.88
2018-09-16T17:56:01.157Z,148724.91
2018-09-16T17:58:32.106Z,148724.91
2018-09-16T18:01:02.445Z,148717.42
2018-09-16T18:03:33.272Z,148714.89
2018-09-16T18:06:03.917Z,148714.89
2018-09-16T18:08:40.081Z,148696.22
2018-09-16T18:11:10.235Z,148688.75
2018-09-16T18:13:40.958Z,148689.98
2018-09-16T18:16:11.247Z,148706.17
2018-09-16T18:18:43.270Z,148706.17
2018-09-16T18:21:14.135Z,148719.92
2018-09-16T18:23:44.386Z,148757.31
2018-09-16T18:26:15.784Z,148776.05
2018-09-16T18:28:46.962Z,148800.94
2018-09-16T18:31:18.015Z,148805.92
2018-09-16T18:33:49.480Z,148829.63
2018-09-16T18:36:19.950Z,148804.69
2018-09-16T18:38:50.121Z,148825.91
2018-09-16T18:41:20.794Z,148853.30
2018-09-16T18:43:50.826Z,148840.84
2018-09-16T18:46:21.004Z,148852.06
2018-09-16T18:48:51.736Z,148864.50
2018-09-16T18:51:21.880Z,148884.48
2018-09-16T18:53:52.193Z,148874.52
2018-09-16T18:56:22.658Z,148862.02
2018-09-16T18:58:53.165Z,148860.77
2018-09-16T19:01:23.265Z,148855.78
2018-09-16T19:03:53.565Z,148852.06
2018-09-16T19:06:24.170Z,148855.78
2018-09-16T19:08:55.598Z,148864.50
2018-09-16T19:11:25.810Z,148847.06
2018-09-16T19:13:57.019Z,148843.34
2018-09-16T19:16:27.014Z,148839.59
2018-09-16T19:18:59.110Z,148840.84
2018-09-16T19:21:29.514Z,148832.12
2018-09-16T19:24:00.284Z,148848.31
2018-09-16T19:26:30.220Z,148820.92
2018-09-16T19:29:00.727Z,148808.42
2018-09-16T19:31:31.244Z,148810.91
2018-09-16T19:34:01.705Z,148657.58
2018-09-16T19:36:32.976Z,148782.27
2018-09-16T19:39:07.726Z,148764.78
2018-09-16T19:41:38.366Z,148732.41
2018-09-16T19:44:09.702Z,148727.44
2018-09-16T19:46:40.570Z,148718.67
2018-09-16T19:49:12.365Z,148699.95
2018-09-16T19:51:42.699Z,148699.95
2018-09-16T19:54:12.877Z,148694.97
2018-09-16T19:56:43.240Z,148697.47
2018-09-16T19:59:13.464Z,148677.50
2018-09-16T20:01:44.523Z,148689.98
2018-09-16T20:04:15.141Z,148676.25
2018-09-16T20:06:46.580Z,148665.05
2018-09-16T20:09:16.785Z,148667.53
2018-09-16T20:11:46.946Z,148666.28
2018-09-16T20:14:17.534Z,148677.50
2018-09-16T20:16:48.615Z,148678.78
2018-09-16T20:19:18.786Z,148680.03
2018-09-16T20:21:48.987Z,148672.52
2018-09-16T20:24:19.461Z,148682.53
2018-09-16T20:26:49.630Z,148677.50
2018-09-16T20:29:19.639Z,148673.75
2018-09-16T20:31:50.543Z,148658.83
2018-09-16T20:34:20.776Z,148653.84
2018-09-16T20:36:50.971Z,148660.06
2018-09-16T20:39:22.862Z,148670.03
2018-09-16T20:41:52.901Z,148696.22
2018-09-16T20:44:23.273Z,148714.89
2018-09-16T20:46:54.470Z,148729.92
2018-09-16T20:49:25.654Z,148719.92
2018-09-16T20:51:56.849Z,148738.64
2018-09-16T20:54:27.169Z,148758.56
2018-09-16T20:56:58.319Z,148744.88
2018-09-16T20:59:28.385Z,148753.58
2018-09-16T21:01:58.761Z,148768.53
2018-09-16T21:04:31.400Z,148771.02
2018-09-16T21:07:02.505Z,148774.80
2018-09-16T21:09:33.714Z,148788.50
2018-09-16T21:12:04.433Z,148772.25
2018-09-16T21:14:34.371Z,148786.00
2018-09-16T21:17:05.497Z,148786.00
2018-09-16T21:19:35.811Z,148807.17
2018-09-16T21:22:06.568Z,148802.19
2018-09-16T21:24:37.009Z,148819.67
2018-09-16T21:27:07.154Z,148810.91
2018-09-16T21:29:37.460Z,148807.17
2018-09-16T21:32:07.633Z,148829.63
2018-09-16T21:34:38.481Z,148842.09
2018-09-16T21:37:08.890Z,148852.06
2018-09-16T21:39:40.804Z,148852.06
2018-09-16T21:42:12.332Z,148858.28
2018-09-16T21:44:42.537Z,148849.56
2018-09-16T21:47:12.691Z,148838.36
2018-09-16T21:49:44.300Z,148833.38
2018-09-16T21:52:15.926Z,148828.39
2018-09-16T21:54:46.273Z,148823.41
2018-09-16T21:57:16.412Z,148830.87
2018-09-16T21:59:46.561Z,148832.12
2018-09-16T22:02:16.812Z,148822.16
2018-09-16T22:04:47.405Z,148818.38
2018-09-16T22:07:17.544Z,148829.63
2018-09-16T22:09:47.671Z,148825.91
2018-09-16T22:12:17.775Z,148817.13
2018-09-16T22:14:48.970Z,148829.63
2018-09-16T22:17:19.620Z,148823.41
2018-09-16T22:19:50.322Z,148822.16
2018-09-16T22:22:20.772Z,148804.69
2018-09-16T22:24:51.074Z,148793.47
2018-09-16T22:27:22.116Z,148784.75
2018-09-16T22:29:52.252Z,148794.72
2018-09-16T22:32:22.585Z,148795.97
2018-09-16T22:34:53.920Z,148778.53
2018-09-16T22:37:26.059Z,148787.25
2018-09-16T22:39:57.885Z,148773.55
2018-09-16T22:42:28.279Z,148766.03
2018-09-16T22:44:59.184Z,148764.78
2018-09-16T22:47:29.353Z,148764.78
2018-09-16T22:49:59.849Z,148752.34
2018-09-16T22:52:30.180Z,148757.31
2018-09-16T22:55:00.400Z,148737.39
2018-09-16T22:57:30.736Z,148719.92
2018-09-16T23:00:01.912Z,148707.42
2018-09-16T23:02:32.408Z,148687.50
2018-09-16T23:05:02.562Z,148692.48
2018-09-16T23:07:32.675Z,148698.70
2018-09-16T23:10:05.078Z,148681.28
2018-09-16T23:12:35.249Z,148682.53
2018-09-16T23:15:06.000Z,148678.78
2018-09-16T23:17:36.764Z,148677.50
2018-09-16T23:20:07.248Z,148675.00
2018-09-16T23:22:38.208Z,148670.03
2018-09-16T23:25:08.386Z,148682.53
2018-09-16T23:27:38.253Z,148662.56
2018-09-16T23:30:08.644Z,148672.52
2018-09-16T23:32:39.175Z,148661.31
2018-09-16T23:35:10.343Z,148656.33
2018-09-16T23:37:40.523Z,148668.78
2018-09-16T23:40:10.773Z,148665.05
2018-09-16T23:42:42.359Z,148663.80
2018-09-16T23:45:13.543Z,148646.38
2018-09-16T23:47:43.480Z,148656.33
2018-09-16T23:50:14.599Z,148646.38
2018-09-16T23:52:45.927Z,148641.39
2018-09-16T23:55:16.395Z,148640.16
2018-09-16T23:57:46.622Z,148641.39
